Etusivu
METAR-TAF:

METAR-TAF

Lentoasemat :

Samaná, Dominikaaninen tasavalta

Leveyspiiri: 19-11-55N, Pituuspiiri: 69-25-47W, korkeus merenpinnasta: 18 m

Tämänhetkinen sää

Tämä raportti tehtiin 5 tuntia ja 19 minuuttia sitten, kello 21.00 UTC
Tuuli 6 kn idästä
Lämpötila 29°C
Kosteus 66%
Ilmanpaine 1014 hPa
Näkyvyys 10 km tai enemmän
Muutamia pilviä 2000 ft:n korkeudessa

METAR: MDAB 232100Z 09006KT 9999 FEW020 29/22 Q1014

Aika: 22:19 (02:19 UTC)


TAF: puuttuu

Säähavainnot ja -ennusteet yli 4000 lentoasemalta (METAR- ja TAF-raportit).

Käytössä olevat sääasemat on merkitty karttaan keltaisilla ja punaisilla pisteillä.

Aseta hiiri pisteen päälle nähdäksesi sääaseman nimen.

Klikkaa sitten nähdäksesi säähavainnot ja -ennusteet.

Kartan vaihtaminen: klikkaa mustalla rastilla varustettuja vihreitä pisteitä, niin voit zoomata sisään; viivalla varustettua vihreää pistettä, niin voit zoomata ulos tai vihreitä nuolia, niin pääset viereisille kartoille.


METAR-TAF: